sensor_id;sensor_type;location;lat;lon;timestamp;pressure;altitude;pressure_sealevel;temperature;humidity
10510;BME280;5303;53.266;10.410;2023-03-02T00:00:54;102569.13;;;2.33;100.00
10510;BME280;5303;53.266;10.410;2023-03-02T00:03:21;102567.38;;;2.32;100.00
10510;BME280;5303;53.266;10.410;2023-03-02T00:05:47;102563.56;;;2.19;100.00
10510;BME280;5303;53.266;10.410;2023-03-02T00:08:14;102566.88;;;2.24;100.00
10510;BME280;5303;53.266;10.410;2023-03-02T00:10:41;102557.09;;;2.23;100.00
10510;BME280;5303;53.266;10.410;2023-03-02T00:13:06;102560.16;;;2.15;100.00
10510;BME280;5303;53.266;10.410;2023-03-02T00:15:31;102551.16;;;2.33;100.00
10510;BME280;5303;53.266;10.410;2023-03-02T00:17:57;102557.50;;;2.32;100.00
10510;BME280;5303;53.266;10.410;2023-03-02T00:20:22;102551.16;;;2.33;100.00
10510;BME280;5303;53.266;10.410;2023-03-02T00:22:47;102545.16;;;2.46;100.00
10510;BME280;5303;53.266;10.410;2023-03-02T00:25:14;102540.44;;;2.51;100.00
10510;BME280;5303;53.266;10.410;2023-03-02T00:27:40;102540.19;;;2.73;100.00
10510;BME280;5303;53.266;10.410;2023-03-02T00:30:08;102534.06;;;2.69;100.00
10510;BME280;5303;53.266;10.410;2023-03-02T00:32:33;102537.28;;;2.60;100.00
10510;BME280;5303;53.266;10.410;2023-03-02T00:34:59;102537.91;;;2.48;100.00
10510;BME280;5303;53.266;10.410;2023-03-02T00:37:24;102551.41;;;2.29;100.00
10510;BME280;5303;53.266;10.410;2023-03-02T00:39:52;102543.97;;;1.98;100.00
10510;BME280;5303;53.266;10.410;2023-03-02T00:42:19;102553.13;;;2.13;100.00
10510;BME280;5303;53.266;10.410;2023-03-02T00:44:44;102547.59;;;2.16;100.00
10510;BME280;5303;53.266;10.410;2023-03-02T00:47:09;102543.53;;;2.07;100.00
10510;BME280;5303;53.266;10.410;2023-03-02T00:49:35;102539.56;;;1.97;100.00
10510;BME280;5303;53.266;10.410;2023-03-02T00:52:01;102539.06;;;1.89;100.00
10510;BME280;5303;53.266;10.410;2023-03-02T00:54:26;102539.06;;;1.89;100.00
10510;BME280;5303;53.266;10.410;2023-03-02T00:56:52;102524.34;;;1.78;100.00
10510;BME280;5303;53.266;10.410;2023-03-02T00:59:17;102522.16;;;1.86;100.00
10510;BME280;5303;53.266;10.410;2023-03-02T01:01:53;102528.19;;;1.73;100.00
10510;BME280;5303;53.266;10.410;2023-03-02T01:04:30;102517.13;;;1.79;100.00
10510;BME280;5303;53.266;10.410;2023-03-02T01:06:58;102524.00;;;2.03;100.00
10510;BME280;5303;53.266;10.410;2023-03-02T01:09:24;102519.63;;;1.83;100.00
10510;BME280;5303;53.266;10.410;2023-03-02T01:11:49;102515.72;;;1.89;100.00
10510;BME280;5303;53.266;10.410;2023-03-02T01:14:15;102518.84;;;1.99;100.00
10510;BME280;5303;53.266;10.410;2023-03-02T01:16:40;102517.94;;;1.81;100.00
10510;BME280;5303;53.266;10.410;2023-03-02T01:19:06;102516.63;;;1.90;100.00
10510;BME280;5303;53.266;10.410;2023-03-02T01:21:31;102517.53;;;1.71;100.00
10510;BME280;5303;53.266;10.410;2023-03-02T01:23:57;102516.69;;;1.88;100.00
10510;BME280;5303;53.266;10.410;2023-03-02T01:26:22;102519.72;;;1.99;100.00
10510;BME280;5303;53.266;10.410;2023-03-02T01:28:47;102521.91;;;1.91;100.00
10510;BME280;5303;53.266;10.410;2023-03-02T01:31:13;102523.16;;;1.84;100.00
10510;BME280;5303;53.266;10.410;2023-03-02T01:33:39;102516.09;;;1.64;100.00
10510;BME280;5303;53.266;10.410;2023-03-02T01:36:04;102511.28;;;1.71;100.00
10510;BME280;5303;53.266;10.410;2023-03-02T01:38:30;102511.84;;;1.77;100.00
10510;BME280;5303;53.266;10.410;2023-03-02T01:40:55;102512.88;;;1.75;100.00
10510;BME280;5303;53.266;10.410;2023-03-02T01:43:20;102515.50;;;1.57;100.00
10510;BME280;5303;53.266;10.410;2023-03-02T01:45:55;102516.56;;;1.53;100.00
10510;BME280;5303;53.266;10.410;2023-03-02T01:48:28;102511.78;;;1.41;100.00
10510;BME280;5303;53.266;10.410;2023-03-02T01:50:54;102507.31;;;1.42;100.00
10510;BME280;5303;53.266;10.410;2023-03-02T01:53:20;102497.13;;;1.67;100.00
10510;BME280;5303;53.266;10.410;2023-03-02T01:55:47;102490.94;;;1.65;100.00
10510;BME280;5303;53.266;10.410;2023-03-02T01:58:14;102486.75;;;1.59;100.00
10510;BME280;5303;53.266;10.410;2023-03-02T02:00:41;102487.81;;;1.74;100.00
10510;BME280;5303;53.266;10.410;2023-03-02T02:03:10;102483.31;;;1.75;100.00
10510;BME280;5303;53.266;10.410;2023-03-02T02:05:39;102477.03;;;1.93;100.00
10510;BME280;5303;53.266;10.410;2023-03-02T02:08:05;102484.44;;;1.88;100.00
10510;BME280;5303;53.266;10.410;2023-03-02T02:10:32;102480.75;;;1.54;100.00
10510;BME280;5303;53.266;10.410;2023-03-02T02:12:57;102488.19;;;1.67;100.00
10510;BME280;5303;53.266;10.410;2023-03-02T02:15:23;102479.88;;;1.90;100.00
10510;BME280;5303;53.266;10.410;2023-03-02T02:17:49;102482.47;;;1.92;100.00
10510;BME280;5303;53.266;10.410;2023-03-02T02:20:39;102479.63;;;1.58;100.00
10510;BME280;5303;53.266;10.410;2023-03-02T02:23:24;102475.41;;;1.72;100.00
10510;BME280;5303;53.266;10.410;2023-03-02T02:28:36;102468.25;;;1.90;100.00
10510;BME280;5303;53.266;10.410;2023-03-02T02:31:22;102476.13;;;1.75;100.00
10510;BME280;5303;53.266;10.410;2023-03-02T02:33:54;102474.03;;;1.63;100.00
10510;BME280;5303;53.266;10.410;2023-03-02T02:36:24;102476.28;;;1.53;100.00
10510;BME280;5303;53.266;10.410;2023-03-02T02:38:53;102485.00;;;1.77;100.00
10510;BME280;5303;53.266;10.410;2023-03-02T02:41:23;102478.75;;;1.77;100.00
10510;BME280;5303;53.266;10.410;2023-03-02T02:43:50;102480.19;;;1.84;100.00
10510;BME280;5303;53.266;10.410;2023-03-02T02:46:15;102479.88;;;2.07;100.00
10510;BME280;5303;53.266;10.410;2023-03-02T02:48:41;102482.38;;;2.12;100.00
10510;BME280;5303;53.266;10.410;2023-03-02T02:51:08;102483.84;;;2.18;100.00
10510;BME280;5303;53.266;10.410;2023-03-02T02:53:46;102486.56;;;2.35;100.00
10510;BME280;5303;53.266;10.410;2023-03-02T02:56:13;102483.53;;;2.24;100.00
10510;BME280;5303;53.266;10.410;2023-03-02T02:58:43;102484.72;;;2.01;100.00
10510;BME280;5303;53.266;10.410;2023-03-02T03:01:14;102476.66;;;1.65;100.00
10510;BME280;5303;53.266;10.410;2023-03-02T03:03:45;102469.66;;;1.79;100.00
10510;BME280;5303;53.266;10.410;2023-03-02T03:06:18;102473.31;;;1.59;100.00
10510;BME280;5303;53.266;10.410;2023-03-02T03:11:12;102466.63;;;1.68;100.00
10510;BME280;5303;53.266;10.410;2023-03-02T03:13:39;102469.19;;;1.52;100.00
10510;BME280;5303;53.266;10.410;2023-03-02T03:16:09;102465.22;;;1.78;100.00
10510;BME280;5303;53.266;10.410;2023-03-02T03:18:35;102461.09;;;1.71;100.00
10510;BME280;5303;53.266;10.410;2023-03-02T03:21:00;102459.88;;;1.96;100.00
10510;BME280;5303;53.266;10.410;2023-03-02T03:23:25;102464.41;;;2.13;100.00
10510;BME280;5303;53.266;10.410;2023-03-02T03:25:51;102468.28;;;2.24;100.00
10510;BME280;5303;53.266;10.410;2023-03-02T03:28:16;102471.66;;;2.28;100.00
10510;BME280;5303;53.266;10.410;2023-03-02T03:30:42;102470.81;;;2.27;100.00
10510;BME280;5303;53.266;10.410;2023-03-02T03:33:08;102475.00;;;2.16;100.00
10510;BME280;5303;53.266;10.410;2023-03-02T03:35:36;102474.19;;;1.96;100.00
10510;BME280;5303;53.266;10.410;2023-03-02T03:38:03;102473.28;;;1.78;100.00
10510;BME280;5303;53.266;10.410;2023-03-02T03:40:28;102473.78;;;1.86;100.00
10510;BME280;5303;53.266;10.410;2023-03-02T03:42:54;102471.84;;;1.35;100.00
10510;BME280;5303;53.266;10.410;2023-03-02T03:45:19;102475.09;;;1.78;100.00
10510;BME280;5303;53.266;10.410;2023-03-02T03:47:44;102469.94;;;2.09;100.00
10510;BME280;5303;53.266;10.410;2023-03-02T03:50:10;102457.81;;;2.18;100.00
10510;BME280;5303;53.266;10.410;2023-03-02T03:52:38;102462.34;;;2.18;100.00
10510;BME280;5303;53.266;10.410;2023-03-02T03:55:04;102467.41;;;2.24;100.00
10510;BME280;5303;53.266;10.410;2023-03-02T03:57:29;102468.41;;;2.21;100.00
10510;BME280;5303;53.266;10.410;2023-03-02T03:59:55;102475.16;;;2.13;100.00
10510;BME280;5303;53.266;10.410;2023-03-02T04:02:21;102482.00;;;2.01;100.00
10510;BME280;5303;53.266;10.410;2023-03-02T04:04:46;102479.16;;;1.86;100.00
10510;BME280;5303;53.266;10.410;2023-03-02T04:07:14;102481.59;;;1.91;100.00
10510;BME280;5303;53.266;10.410;2023-03-02T04:09:39;102481.03;;;1.84;100.00
10510;BME280;5303;53.266;10.410;2023-03-02T04:12:06;102485.41;;;2.04;100.00
10510;BME280;5303;53.266;10.410;2023-03-02T04:14:32;102484.41;;;2.07;100.00
10510;BME280;5303;53.266;10.410;2023-03-02T04:16:57;102486.97;;;1.91;100.00
10510;BME280;5303;53.266;10.410;2023-03-02T04:19:23;102478.81;;;1.75;100.00
10510;BME280;5303;53.266;10.410;2023-03-02T04:21:51;102466.59;;;2.04;100.00
10510;BME280;5303;53.266;10.410;2023-03-02T04:24:18;102479.53;;;1.79;100.00
10510;BME280;5303;53.266;10.410;2023-03-02T04:26:44;102470.06;;;1.89;100.00
10510;BME280;5303;53.266;10.410;2023-03-02T04:29:11;102464.63;;;2.08;100.00
10510;BME280;5303;53.266;10.410;2023-03-02T04:31:37;102464.78;;;2.40;100.00
10510;BME280;5303;53.266;10.410;2023-03-02T04:34:03;102474.34;;;2.28;100.00
10510;BME280;5303;53.266;10.410;2023-03-02T04:36:30;102477.13;;;2.26;100.00
10510;BME280;5303;53.266;10.410;2023-03-02T04:38:55;102480.44;;;1.97;100.00
10510;BME280;5303;53.266;10.410;2023-03-02T04:41:21;102473.25;;;1.61;100.00
10510;BME280;5303;53.266;10.410;2023-03-02T04:43:46;102478.47;;;1.64;100.00
10510;BME280;5303;53.266;10.410;2023-03-02T04:46:18;102475.56;;;1.86;100.00
10510;BME280;5303;53.266;10.410;2023-03-02T04:48:44;102476.16;;;1.56;100.00
10510;BME280;5303;53.266;10.410;2023-03-02T04:51:30;102483.84;;;1.64;100.00
10510;BME280;5303;53.266;10.410;2023-03-02T04:53:59;102481.66;;;1.53;100.00
10510;BME280;5303;53.266;10.410;2023-03-02T04:56:25;102481.78;;;1.69;100.00
10510;BME280;5303;53.266;10.410;2023-03-02T04:58:51;102484.91;;;1.60;100.00
10510;BME280;5303;53.266;10.410;2023-03-02T05:01:17;102482.09;;;1.63;100.00
10510;BME280;5303;53.266;10.410;2023-03-02T05:03:43;102486.97;;;1.55;100.00
10510;BME280;5303;53.266;10.410;2023-03-02T05:06:09;102495.31;;;1.30;100.00
10510;BME280;5303;53.266;10.410;2023-03-02T05:08:34;102491.25;;;1.40;100.00
10510;BME280;5303;53.266;10.410;2023-03-02T05:11:00;102487.72;;;1.39;100.00
10510;BME280;5303;53.266;10.410;2023-03-02T05:13:26;102487.41;;;1.46;100.00
10510;BME280;5303;53.266;10.410;2023-03-02T05:15:52;102484.41;;;1.71;100.00
10510;BME280;5303;53.266;10.410;2023-03-02T05:18:18;102487.84;;;1.55;100.00
10510;BME280;5303;53.266;10.410;2023-03-02T05:20:44;102492.13;;;1.40;100.00
10510;BME280;5303;53.266;10.410;2023-03-02T05:23:13;102489.09;;;1.48;100.00
10510;BME280;5303;53.266;10.410;2023-03-02T05:25:48;102489.09;;;1.84;100.00
10510;BME280;5303;53.266;10.410;2023-03-02T05:28:13;102492.28;;;1.93;100.00
10510;BME280;5303;53.266;10.410;2023-03-02T05:30:39;102491.00;;;1.63;100.00
10510;BME280;5303;53.266;10.410;2023-03-02T05:33:04;102485.13;;;1.74;100.00
10510;BME280;5303;53.266;10.410;2023-03-02T05:35:29;102491.09;;;1.62;100.00
10510;BME280;5303;53.266;10.410;2023-03-02T05:37:55;102486.56;;;1.81;100.00
10510;BME280;5303;53.266;10.410;2023-03-02T05:40:20;102482.09;;;1.44;100.00
10510;BME280;5303;53.266;10.410;2023-03-02T05:42:46;102489.69;;;1.72;100.00
10510;BME280;5303;53.266;10.410;2023-03-02T05:45:20;102479.69;;;1.57;100.00
10510;BME280;5303;53.266;10.410;2023-03-02T05:47:46;102486.44;;;1.66;100.00
10510;BME280;5303;53.266;10.410;2023-03-02T05:50:12;102481.25;;;1.44;100.00
10510;BME280;5303;53.266;10.410;2023-03-02T05:52:37;102483.84;;;1.64;100.00
10510;BME280;5303;53.266;10.410;2023-03-02T05:55:02;102479.56;;;1.41;100.00
10510;BME280;5303;53.266;10.410;2023-03-02T05:57:28;102476.53;;;1.49;100.00
10510;BME280;5303;53.266;10.410;2023-03-02T05:59:53;102470.88;;;1.55;100.00
10510;BME280;5303;53.266;10.410;2023-03-02T06:02:18;102470.34;;;1.83;100.00
10510;BME280;5303;53.266;10.410;2023-03-02T06:04:44;102471.97;;;1.87;100.00
10510;BME280;5303;53.266;10.410;2023-03-02T06:07:09;102478.53;;;1.99;100.00
10510;BME280;5303;53.266;10.410;2023-03-02T06:09:38;102480.34;;;1.62;100.00
10510;BME280;5303;53.266;10.410;2023-03-02T06:12:05;102481.75;;;1.33;100.00
10510;BME280;5303;53.266;10.410;2023-03-02T06:14:30;102482.19;;;1.61;100.00
10510;BME280;5303;53.266;10.410;2023-03-02T06:16:56;102484.50;;;1.31;100.00
10510;BME280;5303;53.266;10.410;2023-03-02T06:19:21;102484.53;;;0.92;100.00
10510;BME280;5303;53.266;10.410;2023-03-02T06:21:46;102488.50;;;1.04;100.00
10510;BME280;5303;53.266;10.410;2023-03-02T06:24:12;102489.72;;;0.76;100.00
10510;BME280;5303;53.266;10.410;2023-03-02T06:26:37;102489.72;;;0.97;100.00
10510;BME280;5303;53.266;10.410;2023-03-02T06:29:02;102488.41;;;1.24;100.00
10510;BME280;5303;53.266;10.410;2023-03-02T06:31:29;102489.97;;;1.30;100.00
10510;BME280;5303;53.266;10.410;2023-03-02T06:33:55;102488.66;;;1.20;100.00
10510;BME280;5303;53.266;10.410;2023-03-02T06:36:20;102494.00;;;1.01;100.00
10510;BME280;5303;53.266;10.410;2023-03-02T06:38:45;102491.25;;;1.21;100.00
10510;BME280;5303;53.266;10.410;2023-03-02T06:41:11;102498.09;;;0.89;100.00
10510;BME280;5303;53.266;10.410;2023-03-02T06:43:36;102488.91;;;0.95;100.00
10510;BME280;5303;53.266;10.410;2023-03-02T06:46:01;102497.84;;;1.14;100.00
10510;BME280;5303;53.266;10.410;2023-03-02T06:48:27;102491.19;;;1.04;100.00
10510;BME280;5303;53.266;10.410;2023-03-02T06:50:52;102496.97;;;1.13;100.00
10510;BME280;5303;53.266;10.410;2023-03-02T06:53:17;102503.34;;;1.11;100.00
10510;BME280;5303;53.266;10.410;2023-03-02T06:55:46;102498.81;;;1.13;100.00
10510;BME280;5303;53.266;10.410;2023-03-02T06:58:11;102498.06;;;1.28;100.00
10510;BME280;5303;53.266;10.410;2023-03-02T07:00:38;102493.88;;;1.23;100.00
10510;BME280;5303;53.266;10.410;2023-03-02T07:03:03;102493.50;;;1.30;100.00
10510;BME280;5303;53.266;10.410;2023-03-02T07:05:28;102485.03;;;1.39;100.00
10510;BME280;5303;53.266;10.410;2023-03-02T07:07:58;102483.63;;;1.50;100.00
10510;BME280;5303;53.266;10.410;2023-03-02T07:10:24;102487.13;;;1.52;100.00
10510;BME280;5303;53.266;10.410;2023-03-02T07:12:49;102485.72;;;1.81;100.00
10510;BME280;5303;53.266;10.410;2023-03-02T07:15:15;102487.53;;;1.80;100.00
10510;BME280;5303;53.266;10.410;2023-03-02T07:17:42;102491.97;;;1.62;100.00
10510;BME280;5303;53.266;10.410;2023-03-02T07:20:10;102486.16;;;1.72;100.00
10510;BME280;5303;53.266;10.410;2023-03-02T07:22:36;102495.59;;;1.61;100.00
10510;BME280;5303;53.266;10.410;2023-03-02T07:25:01;102487.38;;;1.83;100.00
10510;BME280;5303;53.266;10.410;2023-03-02T07:27:27;102490.84;;;1.85;100.00
10510;BME280;5303;53.266;10.410;2023-03-02T07:29:52;102482.06;;;1.82;100.00
10510;BME280;5303;53.266;10.410;2023-03-02T07:32:17;102484.56;;;1.68;100.00
10510;BME280;5303;53.266;10.410;2023-03-02T07:34:43;102478.75;;;1.77;100.00
10510;BME280;5303;53.266;10.410;2023-03-02T07:37:08;102476.22;;;1.74;100.00
10510;BME280;5303;53.266;10.410;2023-03-02T07:39:33;102479.78;;;1.55;100.00
10510;BME280;5303;53.266;10.410;2023-03-02T07:42:00;102474.56;;;1.89;100.00
10510;BME280;5303;53.266;10.410;2023-03-02T07:44:26;102470.41;;;2.00;100.00
10510;BME280;5303;53.266;10.410;2023-03-02T07:46:52;102470.81;;;2.10;100.00
10510;BME280;5303;53.266;10.410;2023-03-02T07:49:17;102467.56;;;2.03;100.00
10510;BME280;5303;53.266;10.410;2023-03-02T07:51:43;102470.28;;;1.84;100.00
10510;BME280;5303;53.266;10.410;2023-03-02T07:54:08;102470.19;;;1.86;100.00
10510;BME280;5303;53.266;10.410;2023-03-02T07:56:34;102461.69;;;1.95;100.00
10510;BME280;5303;53.266;10.410;2023-03-02T07:58:59;102463.84;;;2.06;100.00
10510;BME280;5303;53.266;10.410;2023-03-02T08:01:25;102463.28;;;2.17;100.00
10510;BME280;5303;53.266;10.410;2023-03-02T08:03:50;102462.91;;;2.07;100.00
10510;BME280;5303;53.266;10.410;2023-03-02T08:06:15;102468.91;;;2.12;100.00
10510;BME280;5303;53.266;10.410;2023-03-02T08:08:41;102469.63;;;2.16;100.00
10510;BME280;5303;53.266;10.410;2023-03-02T08:11:09;102466.84;;;2.17;100.00
10510;BME280;5303;53.266;10.410;2023-03-02T08:13:35;102479.63;;;1.58;100.00
10510;BME280;5303;53.266;10.410;2023-03-02T08:16:02;102479.47;;;1.80;100.00
10510;BME280;5303;53.266;10.410;2023-03-02T08:18:28;102483.13;;;1.97;100.00
10510;BME280;5303;53.266;10.410;2023-03-02T08:20:54;102468.75;;;2.32;100.00
10510;BME280;5303;53.266;10.410;2023-03-02T08:23:19;102462.56;;;2.30;100.00
10510;BME280;5303;53.266;10.410;2023-03-02T08:25:45;102464.56;;;2.44;100.00
10510;BME280;5303;53.266;10.410;2023-03-02T08:28:10;102456.31;;;2.65;100.00
10510;BME280;5303;53.266;10.410;2023-03-02T08:30:36;102449.03;;;2.49;100.00
10510;BME280;5303;53.266;10.410;2023-03-02T08:33:01;102451.91;;;2.46;100.00
10510;BME280;5303;53.266;10.410;2023-03-02T08:35:26;102462.28;;;2.19;100.00
10510;BME280;5303;53.266;10.410;2023-03-02T08:37:51;102450.72;;;2.52;100.00
10510;BME280;5303;53.266;10.410;2023-03-02T08:40:18;102448.78;;;2.71;100.00
10510;BME280;5303;53.266;10.410;2023-03-02T08:42:43;102444.28;;;2.88;100.00
10510;BME280;5303;53.266;10.410;2023-03-02T08:45:08;102442.38;;;2.74;100.00
10510;BME280;5303;53.266;10.410;2023-03-02T08:47:34;102437.06;;;2.72;100.00
10510;BME280;5303;53.266;10.410;2023-03-02T08:49:59;102432.47;;;2.74;100.00
10510;BME280;5303;53.266;10.410;2023-03-02T08:52:24;102444.53;;;2.67;100.00
10510;BME280;5303;53.266;10.410;2023-03-02T08:54:50;102441.72;;;2.36;100.00
10510;BME280;5303;53.266;10.410;2023-03-02T08:57:15;102454.19;;;2.02;100.00
10510;BME280;5303;53.266;10.410;2023-03-02T08:59:40;102458.94;;;2.14;100.00
10510;BME280;5303;53.266;10.410;2023-03-02T09:02:06;102461.78;;;2.11;100.00
10510;BME280;5303;53.266;10.410;2023-03-02T09:04:34;102458.38;;;2.07;100.00
10510;BME280;5303;53.266;10.410;2023-03-02T09:06:59;102462.03;;;2.41;100.00
10510;BME280;5303;53.266;10.410;2023-03-02T09:09:24;102445.75;;;2.44;100.00
10510;BME280;5303;53.266;10.410;2023-03-02T09:11:49;102453.31;;;2.36;100.00
10510;BME280;5303;53.266;10.410;2023-03-02T09:14:15;102453.66;;;2.13;100.00
10510;BME280;5303;53.266;10.410;2023-03-02T09:16:40;102442.09;;;2.45;100.00
10510;BME280;5303;53.266;10.410;2023-03-02T09:19:05;102434.09;;;2.44;100.00
10510;BME280;5303;53.266;10.410;2023-03-02T09:21:31;102446.41;;;2.65;100.00
10510;BME280;5303;53.266;10.410;2023-03-02T09:23:56;102433.38;;;2.91;100.00
10510;BME280;5303;53.266;10.410;2023-03-02T09:26:23;102423.91;;;2.84;100.00
10510;BME280;5303;53.266;10.410;2023-03-02T09:28:48;102429.44;;;2.80;100.00
10510;BME280;5303;53.266;10.410;2023-03-02T09:31:14;102423.06;;;2.66;100.00
10510;BME280;5303;53.266;10.410;2023-03-02T09:33:39;102419.38;;;2.51;100.00
10510;BME280;5303;53.266;10.410;2023-03-02T09:36:09;102422.00;;;2.18;100.00
10510;BME280;5303;53.266;10.410;2023-03-02T09:38:36;102418.53;;;2.66;100.00
10510;BME280;5303;53.266;10.410;2023-03-02T09:41:23;102419.28;;;2.52;100.00
10510;BME280;5303;53.266;10.410;2023-03-02T09:46:28;102406.97;;;2.48;100.00
10510;BME280;5303;53.266;10.410;2023-03-02T09:51:35;102423.84;;;2.68;100.00
10510;BME280;5303;53.266;10.410;2023-03-02T09:56:36;102425.34;;;2.23;100.00
10510;BME280;5303;53.266;10.410;2023-03-02T09:59:14;102436.94;;;1.89;100.00
10510;BME280;5303;53.266;10.410;2023-03-02T10:01:48;102427.31;;;2.54;100.00
10510;BME280;5303;53.266;10.410;2023-03-02T10:06:54;102424.41;;;2.74;100.00
10510;BME280;5303;53.266;10.410;2023-03-02T10:09:20;102423.72;;;2.53;100.00
10510;BME280;5303;53.266;10.410;2023-03-02T10:14:48;102428.06;;;2.56;100.00
10510;BME280;5303;53.266;10.410;2023-03-02T10:17:42;102436.63;;;2.47;100.00
10510;BME280;5303;53.266;10.410;2023-03-02T10:20:33;102441.53;;;2.21;100.00
10510;BME280;5303;53.266;10.410;2023-03-02T10:25:49;102426.25;;;2.56;100.00
10510;BME280;5303;53.266;10.410;2023-03-02T10:28:19;102436.41;;;2.85;100.00
10510;BME280;5303;53.266;10.410;2023-03-02T10:30:48;102432.97;;;2.65;100.00
10510;BME280;5303;53.266;10.410;2023-03-02T10:33:17;102428.03;;;2.73;100.00
10510;BME280;5303;53.266;10.410;2023-03-02T10:35:48;102416.47;;;3.20;100.00
10510;BME280;5303;53.266;10.410;2023-03-02T10:38:18;102418.09;;;3.07;100.00
10510;BME280;5303;53.266;10.410;2023-03-02T10:40:56;102417.59;;;3.32;100.00
10510;BME280;5303;53.266;10.410;2023-03-02T10:46:00;102421.50;;;3.42;100.00
10510;BME280;5303;53.266;10.410;2023-03-02T10:48:25;102417.91;;;2.94;100.00
10510;BME280;5303;53.266;10.410;2023-03-02T10:50:56;102417.25;;;3.38;100.00
10510;BME280;5303;53.266;10.410;2023-03-02T10:53:22;102411.88;;;3.22;100.00
10510;BME280;5303;53.266;10.410;2023-03-02T10:55:52;102419.50;;;3.30;100.00
10510;BME280;5303;53.266;10.410;2023-03-02T10:58:29;102418.22;;;3.21;100.00
10510;BME280;5303;53.266;10.410;2023-03-02T11:01:01;102409.88;;;3.26;100.00
10510;BME280;5303;53.266;10.410;2023-03-02T11:03:28;102414.03;;;3.32;100.00
10510;BME280;5303;53.266;10.410;2023-03-02T11:05:55;102409.88;;;3.26;100.00
10510;BME280;5303;53.266;10.410;2023-03-02T11:08:26;102418.41;;;3.34;100.00
10510;BME280;5303;53.266;10.410;2023-03-02T11:10:55;102413.69;;;2.57;100.00
10510;BME280;5303;53.266;10.410;2023-03-02T11:13:28;102414.44;;;3.08;100.00
10510;BME280;5303;53.266;10.410;2023-03-02T11:15:56;102403.84;;;3.21;100.00
10510;BME280;5303;53.266;10.410;2023-03-02T11:18:28;102410.31;;;3.34;100.00
10510;BME280;5303;53.266;10.410;2023-03-02T11:21:04;102405.69;;;3.36;100.00
10510;BME280;5303;53.266;10.410;2023-03-02T11:26:34;102406.44;;;2.91;100.00
10510;BME280;5303;53.266;10.410;2023-03-02T11:29:17;102399.94;;;2.95;100.00
10510;BME280;5303;53.266;10.410;2023-03-02T11:31:52;102395.84;;;2.88;100.00
10510;BME280;5303;53.266;10.410;2023-03-02T11:34:26;102396.84;;;3.18;100.00
10510;BME280;5303;53.266;10.410;2023-03-02T11:39:25;102389.97;;;3.13;100.00
10510;BME280;5303;53.266;10.410;2023-03-02T11:41:53;102390.75;;;2.99;100.00
10510;BME280;5303;53.266;10.410;2023-03-02T11:44:20;102391.47;;;3.02;100.00
10510;BME280;5303;53.266;10.410;2023-03-02T11:46:48;102400.22;;;3.38;100.00
10510;BME280;5303;53.266;10.410;2023-03-02T11:49:24;102389.88;;;2.83;100.00
10510;BME280;5303;53.266;10.410;2023-03-02T11:51:55;102391.16;;;2.91;100.00
10510;BME280;5303;53.266;10.410;2023-03-02T11:54:40;102389.53;;;2.55;100.00
10510;BME280;5303;53.266;10.410;2023-03-02T11:57:18;102391.44;;;2.87;100.00
10510;BME280;5303;53.266;10.410;2023-03-02T11:59:45;102393.50;;;2.82;100.00
10510;BME280;5303;53.266;10.410;2023-03-02T12:02:12;102388.06;;;2.83;100.00
10510;BME280;5303;53.266;10.410;2023-03-02T12:04:38;102389.22;;;2.62;100.00
10510;BME280;5303;53.266;10.410;2023-03-02T12:07:24;102385.63;;;2.94;100.00
10510;BME280;5303;53.266;10.410;2023-03-02T12:10:00;102390.25;;;2.92;100.00
10510;BME280;5303;53.266;10.410;2023-03-02T12:13:19;102383.19;;;2.56;100.00
10510;BME280;5303;53.266;10.410;2023-03-02T12:15:28;102385.09;;;3.03;100.00
10510;BME280;5303;53.266;10.410;2023-03-02T12:17:58;102383.81;;;3.26;100.00
10510;BME280;5303;53.266;10.410;2023-03-02T12:20:25;102376.88;;;3.22;100.00
10510;BME280;5303;53.266;10.410;2023-03-02T12:22:52;102374.84;;;3.26;100.00
10510;BME280;5303;53.266;10.410;2023-03-02T12:27:42;102381.28;;;3.39;100.00
10510;BME280;5303;53.266;10.410;2023-03-02T12:30:20;102375.53;;;2.98;100.00
10510;BME280;5303;53.266;10.410;2023-03-02T12:33:15;102380.53;;;3.21;100.00
10510;BME280;5303;53.266;10.410;2023-03-02T12:35:42;102374.16;;;3.07;100.00
10510;BME280;5303;53.266;10.410;2023-03-02T12:38:32;102374.78;;;3.12;100.00
10510;BME280;5303;53.266;10.410;2023-03-02T12:43:41;102368.09;;;3.03;100.00
10510;BME280;5303;53.266;10.410;2023-03-02T12:46:30;102371.53;;;3.37;100.00
10510;BME280;5303;53.266;10.410;2023-03-02T12:48:58;102368.16;;;3.33;100.00
10510;BME280;5303;53.266;10.410;2023-03-02T12:51:27;102361.09;;;3.46;100.00
10510;BME280;5303;53.266;10.410;2023-03-02T12:54:11;102356.00;;;3.42;100.00
10510;BME280;5303;53.266;10.410;2023-03-02T12:56:37;102355.28;;;3.54;100.00
10510;BME280;5303;53.266;10.410;2023-03-02T12:59:02;102355.19;;;3.56;100.00
10510;BME280;5303;53.266;10.410;2023-03-02T13:01:29;102360.13;;;3.63;100.00
10510;BME280;5303;53.266;10.410;2023-03-02T13:03:56;102351.81;;;3.52;100.00
10510;BME280;5303;53.266;10.410;2023-03-02T13:06:25;102343.31;;;3.74;100.00
10510;BME280;5303;53.266;10.410;2023-03-02T13:08:53;102346.44;;;3.36;100.00
10510;BME280;5303;53.266;10.410;2023-03-02T13:11:33;102337.50;;;3.66;100.00
10510;BME280;5303;53.266;10.410;2023-03-02T13:14:00;102331.59;;;3.59;100.00
10510;BME280;5303;53.266;10.410;2023-03-02T13:16:32;102325.53;;;3.56;100.00
10510;BME280;5303;53.266;10.410;2023-03-02T13:19:01;102325.75;;;3.83;100.00
10510;BME280;5303;53.266;10.410;2023-03-02T13:21:32;102318.25;;;4.16;100.00
10510;BME280;5303;53.266;10.410;2023-03-02T13:23:59;102312.59;;;4.21;100.00
10510;BME280;5303;53.266;10.410;2023-03-02T13:26:34;102311.22;;;4.14;100.00
10510;BME280;5303;53.266;10.410;2023-03-02T13:29:15;102304.91;;;4.43;100.00